createdAt,value
2018-08-10T00:01:04.870Z,14.30
2018-08-10T00:03:34.492Z,15.20
2018-08-10T00:06:04.945Z,14.43
2018-08-10T00:08:35.420Z,14.50
2018-08-10T00:11:05.901Z,13.10
2018-08-10T00:13:36.404Z,15.73
2018-08-10T00:16:06.239Z,13.40
2018-08-10T00:18:36.536Z,13.70
2018-08-10T00:21:07.008Z,17.97
2018-08-10T00:23:37.519Z,19.67
2018-08-10T00:26:08.046Z,21.10
2018-08-10T00:28:38.648Z,14.93
2018-08-10T00:31:08.566Z,19.50
2018-08-10T00:33:39.603Z,26.60
2018-08-10T00:36:09.449Z,24.40
2018-08-10T00:38:39.974Z,18.37
2018-08-10T00:41:10.524Z,12.50
2018-08-10T00:43:41.002Z,15.17
2018-08-10T00:46:10.835Z,15.47
2018-08-10T00:48:41.235Z,28.07
2018-08-10T00:51:12.003Z,13.87
2018-08-10T00:53:42.553Z,13.43
2018-08-10T00:56:13.164Z,21.83
2018-08-10T00:58:43.736Z,25.77
2018-08-10T01:01:14.322Z,25.50
2018-08-10T01:03:44.795Z,26.30
2018-08-10T01:06:15.405Z,18.40
2018-08-10T01:08:45.909Z,20.83
2018-08-10T01:11:16.289Z,13.10
2018-08-10T01:13:46.812Z,12.33
2018-08-10T01:16:17.364Z,11.80
2018-08-10T01:18:48.261Z,15.20
2018-08-10T01:21:18.865Z,12.10
2018-08-10T01:23:49.463Z,27.67
2018-08-10T01:26:19.891Z,88.07
2018-08-10T01:28:50.273Z,128.23
2018-08-10T01:31:20.673Z,15.77
2018-08-10T01:33:51.173Z,13.37
2018-08-10T01:36:20.976Z,15.07
2018-08-10T01:38:51.380Z,12.57
2018-08-10T01:41:21.865Z,12.73
2018-08-10T01:43:52.438Z,12.50
2018-08-10T01:49:16.149Z,13.33
2018-08-10T01:51:46.529Z,12.03
2018-08-10T01:54:17.079Z,12.00
2018-08-10T01:56:47.584Z,12.80
2018-08-10T01:59:18.060Z,12.73
2018-08-10T02:01:47.872Z,13.67
2018-08-10T02:04:18.333Z,12.70
2018-08-10T02:06:48.961Z,12.50
2018-08-10T02:09:19.464Z,12.33
2018-08-10T02:11:49.198Z,13.33
2018-08-10T02:14:19.733Z,12.33
2018-08-10T02:16:50.128Z,13.40
2018-08-10T02:19:20.827Z,12.40
2018-08-10T02:21:51.314Z,13.13
2018-08-10T02:24:21.888Z,13.53
2018-08-10T02:26:52.492Z,13.73
2018-08-10T02:29:23.080Z,13.50
2018-08-10T02:31:53.178Z,15.13
2018-08-10T02:34:23.596Z,12.10
2018-08-10T02:36:54.180Z,12.47
2018-08-10T02:39:24.810Z,12.07
2018-08-10T02:41:55.304Z,10.13
2018-08-10T02:44:25.766Z,10.57
2018-08-10T02:46:56.369Z,10.57
2018-08-10T02:49:26.868Z,10.23
2018-08-10T02:51:57.420Z,10.90
2018-08-10T02:54:27.984Z,10.17
2018-08-10T02:56:58.893Z,9.47
2018-08-10T02:59:28.583Z,9.60
2018-08-10T03:01:58.953Z,9.23
2018-08-10T03:04:29.860Z,9.13
2018-08-10T03:06:59.558Z,9.37
2018-08-10T03:09:30.004Z,10.07
2018-08-10T03:11:59.746Z,9.93
2018-08-10T03:16:59.463Z,11.47
2018-08-10T03:19:30.068Z,10.20
2018-08-10T03:21:59.852Z,9.97
2018-08-10T03:24:30.175Z,9.30
2018-08-10T03:27:00.780Z,9.13
2018-08-10T03:29:31.136Z,9.17
2018-08-10T03:32:01.575Z,8.27
2018-08-10T03:34:32.141Z,7.10
2018-08-10T03:37:02.865Z,6.10
2018-08-10T03:39:33.380Z,7.30
2018-08-10T03:42:03.178Z,9.97
2018-08-10T03:44:32.811Z,4.47
2018-08-10T03:47:03.215Z,7.57
2018-08-10T03:49:33.745Z,5.23
2018-08-10T03:52:04.273Z,4.40
2018-08-10T03:54:34.805Z,7.23
2018-08-10T03:57:05.368Z,5.57
2018-08-10T03:59:36.295Z,4.07
2018-08-10T04:02:06.896Z,5.23
2018-08-10T04:04:37.477Z,5.47
2018-08-10T04:07:08.114Z,6.40
2018-08-10T04:09:38.468Z,6.97
2018-08-10T04:12:08.965Z,5.20
2018-08-10T04:14:39.475Z,4.53
2018-08-10T04:17:17.171Z,6.03
2018-08-10T04:19:47.640Z,5.23
2018-08-10T04:22:18.223Z,4.73
2018-08-10T04:24:48.629Z,5.07
2018-08-10T04:27:19.129Z,4.13
2018-08-10T04:29:49.852Z,4.43
2018-08-10T04:32:20.588Z,3.60
2018-08-10T04:34:51.043Z,5.87
2018-08-10T04:37:21.469Z,4.17
2018-08-10T04:39:51.200Z,5.27
2018-08-10T04:42:21.501Z,4.17
2018-08-10T04:44:52.041Z,4.87
2018-08-10T04:47:21.808Z,6.30
2018-08-10T04:49:52.276Z,4.30
2018-08-10T04:52:22.796Z,6.27
2018-08-10T04:54:53.180Z,3.50
2018-08-10T04:57:23.684Z,4.00
2018-08-10T04:59:54.456Z,2.90
2018-08-10T05:02:24.947Z,4.13
2018-08-10T05:04:55.455Z,5.50
2018-08-10T05:07:26.312Z,6.27
2018-08-10T05:09:56.857Z,3.70
2018-08-10T05:12:26.551Z,4.30
2018-08-10T05:14:56.978Z,4.57
2018-08-10T05:17:27.501Z,4.70
2018-08-10T05:19:57.904Z,3.00
2018-08-10T05:22:27.697Z,4.63
2018-08-10T05:24:58.532Z,4.03
2018-08-10T05:27:29.489Z,4.20
2018-08-10T05:29:59.330Z,5.20
2018-08-10T05:32:29.993Z,4.97
2018-08-10T05:35:00.597Z,4.10
2018-08-10T05:37:31.014Z,3.33
2018-08-10T05:40:01.453Z,3.17
2018-08-10T05:42:32.017Z,3.93
2018-08-10T05:45:02.580Z,4.93
2018-08-10T05:47:32.389Z,4.67
2018-08-10T05:50:02.812Z,3.43
2018-08-10T05:52:32.524Z,2.63
2018-08-10T05:55:02.924Z,2.80
2018-08-10T05:57:33.540Z,5.73
2018-08-10T06:00:04.084Z,4.23
2018-08-10T06:02:34.589Z,5.57
2018-08-10T06:05:05.210Z,4.17
2018-08-10T06:07:35.857Z,4.93
2018-08-10T06:10:08.936Z,3.97
2018-08-10T06:12:39.599Z,3.67
2018-08-10T06:15:11.157Z,5.13
2018-08-10T06:17:42.084Z,5.87
2018-08-10T06:20:12.688Z,4.97
2018-08-10T06:22:43.439Z,3.10
2018-08-10T06:25:14.001Z,5.07
2018-08-10T06:27:44.570Z,7.60
2018-08-10T06:30:15.032Z,4.03
2018-08-10T06:32:45.591Z,4.43
2018-08-10T06:35:15.400Z,3.60
2018-08-10T06:37:45.855Z,2.80
2018-08-10T06:40:16.721Z,7.37
2018-08-10T06:42:47.326Z,6.33
2018-08-10T06:45:17.718Z,3.33
2018-08-10T06:47:48.201Z,4.67
2018-08-10T06:50:18.717Z,2.77
2018-08-10T06:52:49.236Z,6.50
2018-08-10T06:55:19.736Z,4.03
2018-08-10T06:57:49.470Z,3.57
2018-08-10T07:00:19.840Z,2.97
2018-08-10T07:02:50.421Z,4.33
2018-08-10T07:05:21.032Z,3.37
2018-08-10T07:07:50.848Z,5.40
2018-08-10T07:10:21.236Z,5.37
2018-08-10T07:12:51.728Z,5.03
2018-08-10T07:15:22.296Z,4.10
2018-08-10T07:17:52.908Z,3.53
2018-08-10T07:20:23.416Z,4.83
2018-08-10T07:22:53.948Z,6.27
2018-08-10T07:25:24.316Z,4.10
2018-08-10T07:27:54.900Z,5.27
2018-08-10T07:30:25.467Z,3.60
2018-08-10T07:32:56.080Z,5.63
2018-08-10T07:35:26.576Z,7.00
2018-08-10T07:37:57.017Z,6.73
2018-08-10T07:40:27.599Z,4.83
2018-08-10T07:42:58.139Z,3.07
2018-08-10T07:45:28.676Z,2.90
2018-08-10T07:47:59.048Z,5.20
2018-08-10T07:50:29.492Z,3.33
2018-08-10T07:52:59.984Z,4.43
2018-08-10T07:55:30.884Z,4.37
2018-08-10T07:58:01.392Z,2.67
2018-08-10T08:00:31.928Z,2.00
2018-08-10T08:03:02.561Z,3.10
2018-08-10T08:05:33.136Z,2.33
2018-08-10T08:08:03.737Z,1.23
2018-08-10T08:10:33.526Z,1.50
2018-08-10T08:13:03.899Z,1.70
2018-08-10T08:15:34.303Z,2.93
2018-08-10T08:18:04.918Z,4.90
2018-08-10T08:20:35.360Z,7.40
2018-08-10T08:23:05.817Z,3.93
2018-08-10T08:25:36.264Z,2.97
2018-08-10T08:28:06.870Z,3.43
2018-08-10T08:30:37.198Z,5.77
2018-08-10T08:33:08.032Z,4.90
2018-08-10T08:35:38.317Z,3.27
2018-08-10T08:38:19.360Z,3.57
2018-08-10T08:40:51.820Z,2.57
2018-08-10T08:43:32.778Z,3.73
2018-08-10T08:46:05.225Z,2.07
2018-08-10T08:48:40.389Z,4.73
2018-08-10T08:51:16.181Z,2.57
2018-08-10T08:53:46.858Z,2.50
2018-08-10T08:56:19.475Z,3.10
2018-08-10T08:58:50.852Z,2.00
2018-08-10T09:01:21.296Z,3.17
2018-08-10T09:04:57.138Z,4.27
2018-08-10T09:07:28.680Z,3.17
2018-08-10T09:09:59.894Z,2.03
2018-08-10T09:12:30.583Z,6.00
2018-08-10T09:15:05.566Z,3.37
2018-08-10T09:17:36.039Z,7.10
2018-08-10T09:20:08.758Z,4.50
2018-08-10T09:22:39.288Z,5.27
2018-08-10T09:25:12.929Z,5.93
2018-08-10T09:27:43.485Z,3.37
2018-08-10T09:30:14.454Z,3.90
2018-08-10T09:32:44.940Z,2.70
2018-08-10T09:35:15.894Z,4.57
2018-08-10T09:37:45.747Z,3.67
2018-08-10T09:40:17.873Z,3.87
2018-08-10T09:42:47.843Z,5.90
2018-08-10T09:45:19.168Z,4.17
2018-08-10T09:47:50.511Z,2.43
2018-08-10T09:50:21.230Z,6.03
2018-08-10T09:53:00.140Z,4.63
2018-08-10T09:55:31.628Z,3.30
2018-08-10T09:58:10.445Z,4.90
2018-08-10T10:00:45.928Z,5.67
2018-08-10T10:03:18.024Z,4.57
2018-08-10T10:05:48.616Z,3.73
2018-08-10T10:08:19.481Z,2.00
2018-08-10T10:10:49.302Z,2.20
2018-08-10T10:13:19.766Z,2.07
2018-08-10T10:15:50.380Z,3.60
2018-08-10T10:18:20.772Z,3.07
2018-08-10T10:20:51.342Z,2.67
2018-08-10T10:23:21.613Z,3.83
2018-08-10T10:25:52.164Z,2.40
2018-08-10T10:28:21.907Z,3.40
2018-08-10T10:30:52.205Z,2.77
2018-08-10T10:33:21.941Z,3.57
2018-08-10T10:35:52.447Z,4.43
2018-08-10T10:38:22.993Z,5.13
2018-08-10T10:40:53.400Z,3.90
2018-08-10T10:43:23.168Z,2.90
2018-08-10T10:45:53.513Z,2.60
2018-08-10T10:48:23.982Z,4.13
2018-08-10T10:50:54.687Z,3.60
2018-08-10T10:53:25.254Z,4.27
2018-08-10T10:55:55.749Z,2.43
2018-08-10T10:58:25.630Z,5.27
2018-08-10T11:00:55.956Z,2.43
2018-08-10T11:03:26.444Z,4.30
2018-08-10T11:05:57.015Z,3.03
2018-08-10T11:08:27.513Z,4.10
2018-08-10T11:10:58.001Z,3.23
2018-08-10T11:13:27.840Z,2.93
2018-08-10T11:15:58.241Z,1.77
2018-08-10T11:18:28.032Z,2.57
2018-08-10T11:20:57.644Z,3.23
2018-08-10T11:23:28.219Z,1.73
2018-08-10T11:25:58.611Z,3.27
2018-08-10T11:28:29.136Z,2.27
2018-08-10T11:30:59.568Z,1.73
2018-08-10T11:33:29.797Z,3.83
2018-08-10T11:36:00.068Z,2.07
2018-08-10T11:38:30.432Z,1.90
2018-08-10T11:41:00.949Z,3.13
2018-08-10T11:43:31.517Z,5.77
2018-08-10T11:46:01.881Z,3.03
2018-08-10T11:48:32.376Z,2.50
2018-08-10T11:51:02.820Z,6.33
2018-08-10T11:53:33.230Z,2.83
2018-08-10T11:56:03.804Z,3.53
2018-08-10T11:58:34.413Z,2.20
2018-08-10T12:01:04.883Z,3.13
2018-08-10T12:03:34.731Z,3.10
2018-08-10T12:06:05.162Z,3.27
2018-08-10T12:08:35.796Z,2.70
2018-08-10T12:11:06.264Z,4.20
2018-08-10T12:13:36.779Z,3.53
2018-08-10T12:16:07.537Z,3.30
2018-08-10T12:18:38.516Z,4.47
2018-08-10T12:21:09.153Z,6.63
2018-08-10T12:23:39.624Z,3.33
2018-08-10T12:26:10.103Z,3.53
2018-08-10T12:28:40.467Z,4.67
2018-08-10T12:31:11.000Z,5.03
2018-08-10T12:33:41.582Z,3.90
2018-08-10T12:36:12.192Z,3.17
2018-08-10T12:38:42.536Z,3.50
2018-08-10T12:41:12.892Z,4.17
2018-08-10T12:43:43.464Z,4.40
2018-08-10T12:46:13.843Z,5.13
2018-08-10T12:48:44.352Z,6.47
2018-08-10T12:51:14.680Z,3.10
2018-08-10T12:53:45.229Z,5.00
2018-08-10T12:56:15.774Z,5.37
2018-08-10T12:58:46.324Z,4.00
2018-08-10T13:01:16.861Z,4.23
2018-08-10T13:03:46.656Z,5.67
2018-08-10T13:06:17.081Z,3.77
2018-08-10T13:08:47.522Z,4.27
2018-08-10T13:11:17.228Z,4.63
2018-08-10T13:13:46.872Z,4.80
2018-08-10T13:16:17.316Z,3.90
2018-08-10T13:18:47.693Z,3.60
2018-08-10T13:21:17.423Z,4.10
2018-08-10T13:23:47.741Z,5.30
2018-08-10T13:26:18.452Z,4.13
2018-08-10T13:28:48.983Z,3.90
2018-08-10T13:31:18.667Z,5.63
2018-08-10T13:33:49.156Z,4.63
2018-08-10T13:36:19.960Z,7.60
2018-08-10T13:38:50.316Z,3.90
2018-08-10T13:41:20.895Z,5.43
2018-08-10T13:43:51.376Z,5.70
2018-08-10T13:46:21.857Z,3.37
2018-08-10T13:48:52.396Z,3.70
2018-08-10T13:51:23.216Z,3.30
2018-08-10T13:53:53.725Z,4.40
2018-08-10T13:56:24.201Z,5.17
2018-08-10T13:58:54.508Z,4.40
2018-08-10T14:01:24.923Z,8.40
2018-08-10T14:03:55.545Z,4.83
2018-08-10T14:06:26.007Z,5.00
2018-08-10T14:08:56.524Z,4.63
2018-08-10T14:11:27.010Z,3.50
2018-08-10T14:13:57.540Z,4.60
2018-08-10T14:16:28.083Z,4.13
2018-08-10T14:18:58.571Z,4.10
2018-08-10T14:21:29.048Z,4.20
2018-08-10T14:23:59.509Z,4.83
2018-08-10T14:26:29.867Z,5.77
2018-08-10T14:29:00.374Z,3.87
2018-08-10T14:31:30.727Z,4.27
2018-08-10T14:34:01.597Z,4.40
2018-08-10T14:36:32.146Z,3.70
2018-08-10T14:39:01.948Z,3.37
2018-08-10T14:41:32.262Z,4.47
2018-08-10T14:44:02.654Z,4.73
2018-08-10T14:46:33.338Z,3.57
2018-08-10T14:49:03.860Z,4.20
2018-08-10T14:51:34.161Z,2.60
2018-08-10T14:54:04.808Z,5.77
2018-08-10T14:56:35.300Z,3.70
2018-08-10T14:59:06.172Z,3.77
2018-08-10T15:01:36.584Z,3.97
2018-08-10T15:04:07.027Z,4.30
2018-08-10T15:06:37.715Z,4.47
2018-08-10T15:09:12.013Z,2.87
2018-08-10T15:11:42.905Z,2.37
2018-08-10T15:14:13.347Z,2.13
2018-08-10T15:16:43.773Z,2.43
2018-08-10T15:19:13.540Z,3.07
2018-08-10T15:21:43.876Z,1.90
2018-08-10T15:24:14.367Z,2.63
2018-08-10T15:26:44.900Z,2.13
2018-08-10T15:29:15.388Z,2.90
2018-08-10T15:31:45.204Z,1.70
2018-08-10T15:34:15.664Z,3.47
2018-08-10T15:36:46.269Z,2.43
2018-08-10T15:39:16.071Z,1.70
2018-08-10T15:41:45.767Z,5.23
2018-08-10T15:44:16.241Z,1.73
2018-08-10T15:46:46.618Z,3.27
2018-08-10T15:49:17.504Z,2.73
2018-08-10T15:51:48.020Z,2.10
2018-08-10T15:54:18.536Z,2.90
2018-08-10T15:56:48.215Z,2.67
2018-08-10T15:59:18.669Z,2.03
2018-08-10T16:01:48.392Z,1.50
2018-08-10T16:04:18.775Z,4.23
2018-08-10T16:06:49.229Z,1.40
2018-08-10T16:09:18.993Z,2.07
2018-08-10T16:11:48.882Z,1.50
2018-08-10T16:14:19.336Z,1.67
2018-08-10T16:16:49.712Z,3.73
2018-08-10T16:19:19.547Z,1.73
2018-08-10T16:21:49.817Z,3.40
2018-08-10T16:24:20.248Z,1.30
2018-08-10T16:26:50.781Z,4.43
2018-08-10T16:29:21.354Z,1.70
2018-08-10T16:31:51.835Z,1.27
2018-08-10T16:34:22.199Z,2.37
2018-08-10T16:36:52.577Z,1.40
2018-08-10T16:39:23.056Z,1.63
2018-08-10T16:41:53.592Z,1.97
2018-08-10T16:44:24.014Z,1.90
2018-08-10T16:46:54.392Z,3.40
2018-08-10T16:49:24.973Z,2.23
2018-08-10T16:51:55.372Z,2.63
2018-08-10T16:54:25.210Z,2.00
2018-08-10T16:56:55.608Z,2.27
2018-08-10T16:59:25.401Z,4.87
2018-08-10T17:01:55.821Z,2.10
2018-08-10T17:04:26.267Z,4.43
2018-08-10T17:06:56.672Z,5.40
2018-08-10T17:09:27.100Z,5.47
2018-08-10T17:11:57.752Z,2.63
2018-08-10T17:14:27.479Z,5.23
2018-08-10T17:16:57.754Z,1.63
2018-08-10T17:19:28.413Z,1.43
2018-08-10T17:21:58.849Z,2.53
2018-08-10T17:24:28.657Z,2.03
2018-08-10T17:26:59.184Z,4.90
2018-08-10T17:29:28.955Z,5.63
2018-08-10T17:31:59.396Z,5.00
2018-08-10T17:34:30.022Z,5.43
2018-08-10T17:37:00.428Z,7.30
2018-08-10T17:39:30.928Z,6.73
2018-08-10T17:42:01.285Z,4.03
2018-08-10T17:44:31.793Z,3.50
2018-08-10T17:47:02.274Z,5.40
2018-08-10T17:49:32.973Z,4.37
2018-08-10T17:52:03.740Z,5.63
2018-08-10T17:54:34.341Z,6.33
2018-08-10T17:57:04.783Z,2.80
2018-08-10T17:59:35.240Z,7.20
2018-08-10T18:02:04.979Z,4.20
2018-08-10T18:04:35.211Z,4.07
2018-08-10T18:07:06.504Z,5.93
2018-08-10T18:09:37.044Z,3.93
2018-08-10T18:12:07.549Z,3.47
2018-08-10T18:14:38.076Z,1.97
2018-08-10T18:17:08.561Z,1.57
2018-08-10T18:19:39.263Z,3.80
2018-08-10T18:22:09.075Z,3.67
2018-08-10T18:24:39.455Z,1.80
2018-08-10T18:27:10.095Z,2.50
2018-08-10T18:29:39.926Z,3.07
2018-08-10T18:32:10.393Z,5.67
2018-08-10T18:34:40.779Z,2.23
2018-08-10T18:37:11.378Z,2.40
2018-08-10T18:39:41.809Z,2.00
2018-08-10T18:42:12.279Z,3.30
2018-08-10T18:44:41.967Z,2.30
2018-08-10T18:47:12.356Z,2.00
2018-08-10T18:49:42.900Z,2.17
2018-08-10T18:52:13.712Z,2.97
2018-08-10T18:54:44.177Z,8.60
2018-08-10T18:57:14.769Z,2.60
2018-08-10T18:59:45.148Z,5.57
2018-08-10T19:02:15.827Z,3.43
2018-08-10T19:04:46.309Z,2.77
2018-08-10T19:07:17.279Z,2.00
2018-08-10T19:09:47.768Z,5.47
2018-08-10T19:12:18.633Z,7.20
2018-08-10T19:14:48.435Z,5.33
2018-08-10T19:17:18.120Z,7.53
2018-08-10T19:19:48.542Z,3.97
2018-08-10T19:22:19.135Z,5.37
2018-08-10T19:24:49.620Z,7.07
2018-08-10T19:27:20.279Z,7.13
2018-08-10T19:29:50.792Z,8.70
2018-08-10T19:32:21.636Z,3.77
2018-08-10T19:34:51.551Z,2.90
2018-08-10T19:37:22.104Z,2.77
2018-08-10T19:39:52.469Z,2.93
2018-08-10T19:42:23.060Z,3.97
2018-08-10T19:44:53.528Z,2.63
2018-08-10T19:47:24.133Z,3.40
2018-08-10T19:49:54.496Z,4.93
2018-08-10T19:52:25.032Z,2.60
2018-08-10T19:54:54.847Z,3.07
2018-08-10T19:57:25.306Z,3.77
2018-08-10T19:59:55.979Z,3.53
2018-08-10T20:02:26.569Z,5.97
2018-08-10T20:04:57.043Z,3.37
2018-08-10T20:07:27.475Z,5.40
2018-08-10T20:09:57.872Z,3.33
2018-08-10T20:12:28.480Z,3.13
2018-08-10T20:14:59.139Z,3.80
2018-08-10T20:17:29.993Z,3.87
2018-08-10T20:20:00.889Z,5.83
2018-08-10T20:22:31.386Z,5.47
2018-08-10T20:25:01.179Z,4.47
2018-08-10T20:27:30.843Z,2.37
2018-08-10T20:30:01.120Z,2.60
2018-08-10T20:32:30.879Z,2.37
2018-08-10T20:35:01.233Z,4.40
2018-08-10T20:37:31.824Z,7.53
2018-08-10T20:40:02.409Z,3.30
2018-08-10T20:42:33.097Z,2.60
2018-08-10T20:45:04.698Z,3.90
2018-08-10T20:47:35.448Z,4.30
2018-08-10T20:50:06.730Z,8.97
2018-08-10T20:52:37.080Z,6.87
2018-08-10T20:55:07.624Z,5.57
2018-08-10T20:57:38.148Z,9.70
2018-08-10T21:00:09.756Z,3.63
2018-08-10T21:02:40.688Z,6.07
2018-08-10T21:05:11.610Z,4.47
2018-08-10T21:07:41.408Z,3.20
2018-08-10T21:10:14.328Z,2.50
2018-08-10T21:12:45.656Z,2.33
2018-08-10T21:15:16.778Z,3.27
2018-08-10T21:17:47.119Z,2.30
2018-08-10T21:20:18.395Z,3.40
2018-08-10T21:22:48.891Z,3.80
2018-08-10T21:25:19.393Z,2.30
2018-08-10T21:27:49.961Z,2.60
2018-08-10T21:30:20.772Z,2.50
2018-08-10T21:32:51.229Z,2.50
2018-08-10T21:35:21.617Z,2.70
2018-08-10T21:37:52.279Z,3.27
2018-08-10T21:40:22.666Z,4.83
2018-08-10T21:42:53.098Z,3.43
2018-08-10T21:45:23.628Z,2.80
2018-08-10T21:47:54.200Z,2.43
2018-08-10T21:50:24.602Z,5.40
2018-08-10T21:52:54.341Z,2.80
2018-08-10T21:55:24.835Z,3.70
2018-08-10T21:57:54.647Z,4.10
2018-08-10T22:00:59.276Z,4.23
2018-08-10T22:03:29.731Z,3.83
2018-08-10T22:06:00.232Z,4.10
2018-08-10T22:08:30.027Z,5.17
2018-08-10T22:10:59.607Z,5.00
2018-08-10T22:13:35.029Z,5.73
2018-08-10T22:16:10.481Z,3.20
2018-08-10T22:18:45.877Z,4.33
2018-08-10T22:21:16.340Z,9.20
2018-08-10T22:23:46.960Z,6.97
2018-08-10T22:26:17.467Z,5.60
2018-08-10T22:28:47.211Z,7.10
2018-08-10T22:31:17.640Z,7.13
2018-08-10T22:33:48.228Z,14.97
2018-08-10T22:36:18.764Z,9.97
2018-08-10T22:38:49.221Z,8.10
2018-08-10T22:41:19.451Z,13.80
2018-08-10T22:43:49.973Z,8.70
2018-08-10T22:46:20.573Z,7.40
2018-08-10T22:48:50.383Z,7.67
2018-08-10T22:51:20.652Z,5.03
2018-08-10T22:53:51.263Z,4.60
2018-08-10T22:56:21.608Z,5.77
2018-08-10T22:58:52.029Z,5.60
2018-08-10T23:01:22.373Z,5.20
2018-08-10T23:03:52.942Z,6.40
2018-08-10T23:06:22.635Z,4.30
2018-08-10T23:08:52.420Z,4.17
2018-08-10T23:11:22.764Z,3.80
2018-08-10T23:13:53.313Z,4.30
2018-08-10T23:16:23.717Z,4.40
2018-08-10T23:18:55.120Z,6.10
2018-08-10T23:21:33.434Z,6.13
2018-08-10T23:24:16.906Z,5.67
2018-08-10T23:26:47.720Z,8.70
2018-08-10T23:29:18.216Z,6.30
2018-08-10T23:31:49.106Z,4.17
2018-08-10T23:34:19.560Z,4.30
2018-08-10T23:36:50.069Z,4.83
2018-08-10T23:39:20.504Z,6.60
2018-08-10T23:41:50.965Z,5.33
2018-08-10T23:44:21.715Z,5.97
2018-08-10T23:46:52.185Z,5.47
2018-08-10T23:49:22.764Z,4.03
2018-08-10T23:51:53.060Z,6.07
2018-08-10T23:54:29.866Z,7.50
2018-08-10T23:57:00.129Z,5.70
2018-08-10T23:59:30.733Z,4.77
